Accueil
METAR-TAF:

METAR-TAF

Aéroports :

Plate-forme pétrolière

Statfjord B, Norvège

latitude: 61-12-22N, longitude: 1-49-45E, altitude: 10 m

Observation

Le bulletin a été fait il y a 35 minutes, à 11:50 UTC
Vent 38 kt de sud
Température 6°C
Humidité 70%
Pression 1026 hPa
Visibilité 10 km ou plus

METAR: ENFB 141150Z AUTO 17038KT 9999NDV BKN024/// 06/01 Q1026 W///S5

Heure: 13:25 (12:25 UTC)


TAF: absent

Observations et prévisions météorologiques de plus de 4000 aéroports (messages METAR et TAF).

Les stations disponibles sont représentées par des disques jaunes et rouges sur la carte.

Passer la souris dessus pour voir le nom de la station.

Cliquer dessus pour voir les observations et prévisions météorologiques.

Pour changer de carte: cliquez sur les boutons verts avec une croix noire pour zoomer, sur le bouton vert avec un tiret pour effectuer un zoom arrière, ou sur les flèches vertes pour les cartes adjacentes.


METAR-TAF: